Fort McMurray, Alberta

6:42 PM MDT on April 27, 2015 (GMT -0600)
Fort Mcmurray | | Change Station
CLOSE
Current Station
Airport
Location: Fort Mcmurray,
Elevation: 1211 ft
Nearby Weather Stations

Elev 1211 ft 56.65 °N, 111.22 °W | Updated 42 minutes ago

Overcast
Overcast
64 °F
Feels Like 64 °F
N
16
Wind Variable Wind from WSW
Gusts 24 mph

Tomorrow is forecast to be nearly the same temperature as today.

Today
High -- | Low -- °F
--% Chance of Precip.
Yesterday
High -- | Low -- °F
Precip. -- in
5:48 AM 8:58 PM
Waxing Gibbous, 69% visible
Pressure 29.98 in
Visibility 9.0 miles
Clouds Overcast 10000 ft
Dew Point 27 °F
Humidity 24%
Rainfall 0.00 in
Snow Depth Not available.
UV 0 out of 12
Pollen Not available.
Air Quality Not available.
Flu Activity Not available.
METAR CYMM 280000Z AUTO 24014G21KT 9SM OVC100 18/M03 A2994 RMK SLP152 DENSITY ALT 1800FT

More Conditions Fewer Conditions

Pressure 29.98 in
Visibility 9.0 miles
Clouds Overcast 10000 ft
Dew Point 27 °F
Humidity 24%
Rainfall 0.00 in
Snow Depth Not available.
UV 0 out of 12
Pollen Not available.
Air Quality Not available.
Flu Activity Not available.
METAR CYMM 280000Z AUTO 24014G21KT 9SM OVC100 18/M03 A2994 RMK SLP152 DENSITY ALT 1800FT

More Conditions Fewer Conditions

10-Day Weather Forecast

Almanac

Astronomy

Apr. 27, 2015 Rise Set
Actual Time
Civil Twilight
Nautical Twilight
Astronomical Twilight
Moon
Length of Visible Light
Length of Day
Tomorrow will be .
, % of the Moon is Illuminated

Today's Extremes

Country Highs Country Lows

Community

WunderPhotos

Upload Photos

1,817,497 photos uploaded!

WunderBlogs® & News

Nearby

Air Quality

  Air Quality AQ Index Pollutant
Not available.

Snow Depth

Station Depth Elevation

Earthquake Activity

City Distance Mag. Time & Date
Minimum magnitude displayed is 2.5.

Coastal Water Temperatures

Place Temperature

Stations

Nearby Weather Stations

Station Location Temp. Windchill Dew Point Humidity Wind Precip. Elev Updated Type